createdAt,value
2019-04-23T00:00:13.604Z,1.10
2019-04-23T00:03:16.915Z,1.53
2019-04-23T00:06:26.414Z,1.63
2019-04-23T00:09:27.713Z,1.50
2019-04-23T00:13:40.776Z,1.30
2019-04-23T00:15:56.499Z,0.90
2019-04-23T00:18:53.076Z,1.33
2019-04-23T00:22:19.979Z,1.60
2019-04-23T00:25:49.846Z,1.83
2019-04-23T00:28:45.106Z,2.17
2019-04-23T00:31:57.217Z,1.70
2019-04-23T00:34:56.397Z,1.70
2019-04-23T00:37:59.875Z,1.80
2019-04-23T00:41:02.989Z,2.20
2019-04-23T00:44:09.222Z,1.83
2019-04-23T00:47:14.290Z,2.30
2019-04-23T00:50:38.518Z,3.50
2019-04-23T00:53:25.162Z,3.27
2019-04-23T00:59:42.754Z,4.40
2019-04-23T01:05:41.052Z,3.67
2019-04-23T01:08:50.932Z,4.40
2019-04-23T01:11:52.259Z,3.37
2019-04-23T01:15:04.684Z,4.33
2019-04-23T01:18:14.324Z,4.00
2019-04-23T01:20:57.405Z,3.90
2019-04-23T01:24:23.819Z,3.50
2019-04-23T01:28:07.782Z,3.60
2019-04-23T01:34:08.398Z,2.60
2019-04-23T01:37:12.621Z,2.90
2019-04-23T01:40:18.799Z,3.60
2019-04-23T01:43:23.763Z,3.70
2019-04-23T01:46:31.868Z,3.50
2019-04-23T01:49:35.993Z,2.73
2019-04-23T01:58:53.535Z,2.80
2019-04-23T02:05:01.189Z,2.77
2019-04-23T02:08:14.090Z,2.20
2019-04-23T02:11:09.839Z,1.93
2019-04-23T02:14:16.295Z,2.17
2019-04-23T02:17:24.752Z,2.60
2019-04-23T02:20:28.111Z,2.30
2019-04-23T02:23:39.523Z,2.23
2019-04-23T02:30:06.695Z,2.50
2019-04-23T02:36:02.546Z,2.70
2019-04-23T02:39:19.799Z,2.10
2019-04-23T02:42:28.604Z,2.10
2019-04-23T02:45:26.779Z,1.67
2019-04-23T02:54:48.403Z,2.57
2019-04-23T03:07:03.222Z,2.13
2019-04-23T03:09:59.595Z,2.17
2019-04-23T03:13:19.839Z,2.27
2019-04-23T03:16:38.005Z,2.10
2019-04-23T03:19:47.663Z,1.70
2019-04-23T03:23:02.594Z,2.17
2019-04-23T03:26:30.343Z,1.70
2019-04-23T03:29:20.242Z,2.27
2019-04-23T03:35:08.937Z,1.80
2019-04-23T03:38:43.378Z,1.87
2019-04-23T03:41:41.749Z,1.90
2019-04-23T03:44:49.236Z,2.10
2019-04-23T03:51:01.379Z,2.20
2019-04-23T03:54:03.662Z,2.13
2019-04-23T03:57:15.721Z,1.70
2019-04-23T04:03:14.816Z,1.83
2019-04-23T04:06:24.102Z,1.97
2019-04-23T04:12:31.720Z,2.10
2019-04-23T04:21:58.601Z,2.20
2019-04-23T04:24:48.679Z,2.50
2019-04-23T04:30:54.546Z,2.20
2019-04-23T04:34:11.642Z,2.70
2019-04-23T04:40:23.682Z,2.30
2019-04-23T04:46:34.871Z,2.40
2019-04-23T04:49:36.547Z,3.60
2019-04-23T04:52:44.611Z,2.33
2019-04-23T04:55:50.015Z,2.70
2019-04-23T04:58:49.826Z,2.50
2019-04-23T05:02:01.180Z,3.37
2019-04-23T05:08:13.476Z,3.23
2019-04-23T05:11:07.804Z,3.17
2019-04-23T05:14:23.550Z,3.10
2019-04-23T05:17:51.812Z,3.30
2019-04-23T05:20:53.400Z,2.93
2019-04-23T05:23:47.063Z,2.77
2019-04-23T05:26:47.190Z,3.20
2019-04-23T05:30:00.900Z,2.80
2019-04-23T05:33:09.335Z,2.70
2019-04-23T05:36:20.145Z,3.37
2019-04-23T05:39:22.589Z,2.87
2019-04-23T05:42:38.020Z,2.80
2019-04-23T05:45:21.679Z,3.37
2019-04-23T05:48:26.990Z,3.10
2019-04-23T05:51:36.341Z,3.00
2019-04-23T05:54:43.354Z,3.30
2019-04-23T05:57:40.562Z,2.87
2019-04-23T06:00:59.922Z,3.53
2019-04-23T06:04:04.055Z,3.50
2019-04-23T06:10:06.404Z,3.23
2019-04-23T06:13:16.763Z,3.40
2019-04-23T06:16:22.139Z,2.87
2019-04-23T06:19:18.743Z,3.67
2019-04-23T06:22:28.951Z,3.60
2019-04-23T06:28:31.753Z,4.50
2019-04-23T06:31:44.023Z,5.40
2019-04-23T06:34:47.977Z,4.10
2019-04-23T06:38:14.129Z,3.20
2019-04-23T06:40:54.032Z,4.80
2019-04-23T06:47:22.916Z,4.83
2019-04-23T06:50:32.706Z,5.57
2019-04-23T06:53:29.121Z,4.23
2019-04-23T06:56:44.763Z,5.03
2019-04-23T06:59:41.243Z,4.83
2019-04-23T07:03:07.702Z,5.20
2019-04-23T07:09:12.146Z,5.30
2019-04-23T07:12:15.083Z,5.00
2019-04-23T07:15:33.461Z,4.90
2019-04-23T07:18:22.542Z,4.93
2019-04-23T07:21:30.339Z,6.63
2019-04-23T07:24:40.924Z,5.40
2019-04-23T07:27:37.901Z,6.23
2019-04-23T07:30:52.093Z,5.57
2019-04-23T07:33:57.589Z,4.83
2019-04-23T07:36:57.218Z,6.60
2019-04-23T07:40:26.323Z,5.00
2019-04-23T07:43:21.427Z,4.80
2019-04-23T07:46:40.804Z,5.20
2019-04-23T07:49:49.147Z,4.73
2019-04-23T07:52:52.721Z,3.93
2019-04-23T07:55:58.963Z,4.87
2019-04-23T07:58:56.799Z,5.10
2019-04-23T08:02:11.002Z,5.80
2019-04-23T08:08:06.957Z,4.90
2019-04-23T08:14:13.475Z,4.27
2019-04-23T08:17:24.385Z,5.50
2019-04-23T08:20:35.253Z,4.70
2019-04-23T08:27:24.208Z,5.10
2019-04-23T08:30:32.359Z,4.57
2019-04-23T08:33:39.927Z,5.00
2019-04-23T08:43:03.677Z,4.10
2019-04-23T08:46:08.159Z,4.53
2019-04-23T08:49:13.660Z,4.70
2019-04-23T08:55:21.255Z,5.20
2019-04-23T09:01:48.108Z,4.20
2019-04-23T09:04:43.647Z,4.07
2019-04-23T09:07:37.557Z,4.47
2019-04-23T09:10:54.733Z,4.63
2019-04-23T09:17:00.958Z,4.33
2019-04-23T09:23:05.826Z,4.20
2019-04-23T09:26:22.721Z,4.50
2019-04-23T09:29:19.167Z,4.37
2019-04-23T09:32:28.417Z,3.90
2019-04-23T09:35:55.371Z,5.00
2019-04-23T09:39:08.157Z,4.50
2019-04-23T09:42:36.472Z,5.00
2019-04-23T09:45:57.988Z,4.50
2019-04-23T09:49:09.808Z,4.60
2019-04-23T09:52:07.933Z,5.07
2019-04-23T09:55:15.981Z,5.03
2019-04-23T09:58:22.414Z,4.70
2019-04-23T10:01:27.757Z,4.37
2019-04-23T10:04:18.162Z,3.93
2019-04-23T10:07:23.868Z,4.37
2019-04-23T10:10:14.418Z,5.10
2019-04-23T10:13:17.979Z,5.33
2019-04-23T10:16:25.365Z,3.90
2019-04-23T10:19:26.744Z,4.73
2019-04-23T10:22:32.681Z,4.70
2019-04-23T10:25:36.039Z,4.50
2019-04-23T10:28:51.888Z,3.40
2019-04-23T10:31:55.681Z,4.73
2019-04-23T10:35:10.257Z,4.57
2019-04-23T10:38:10.761Z,5.20
2019-04-23T10:41:12.023Z,3.73
2019-04-23T10:44:21.582Z,4.60
2019-04-23T10:48:23.058Z,4.30
2019-04-23T10:51:33.944Z,4.73
2019-04-23T10:57:36.159Z,4.40
2019-04-23T11:00:54.112Z,4.30
2019-04-23T11:04:10.643Z,5.00
2019-04-23T11:10:08.695Z,4.60
2019-04-23T11:13:25.622Z,5.27
2019-04-23T11:19:43.976Z,5.50
2019-04-23T11:25:42.842Z,4.00
2019-04-23T11:28:46.188Z,3.10
2019-04-23T11:31:53.728Z,4.60
2019-04-23T11:38:41.399Z,5.10
2019-04-23T11:41:12.824Z,4.53
2019-04-23T11:44:24.864Z,4.03
2019-04-23T11:48:07.713Z,4.47
2019-04-23T11:50:39.670Z,5.27
2019-04-23T11:53:39.113Z,3.93
2019-04-23T11:57:09.288Z,4.33
2019-04-23T11:59:55.686Z,4.20
2019-04-23T12:06:46.006Z,4.40
2019-04-23T12:09:46.588Z,5.00
2019-04-23T12:13:07.339Z,4.03
2019-04-23T12:15:53.368Z,4.10
2019-04-23T12:19:23.311Z,4.20
2019-04-23T12:28:14.091Z,4.03
2019-04-23T12:31:17.769Z,5.30
2019-04-23T12:34:28.428Z,4.30
2019-04-23T12:37:52.427Z,4.13
2019-04-23T12:40:52.673Z,4.17
2019-04-23T12:43:57.858Z,4.70
2019-04-23T12:47:21.136Z,3.63
2019-04-23T12:50:38.552Z,3.90
2019-04-23T12:53:20.639Z,5.80
2019-04-23T12:56:34.535Z,4.50
2019-04-23T12:59:27.161Z,4.60
2019-04-23T13:02:39.390Z,4.67
2019-04-23T13:05:31.453Z,4.20
2019-04-23T13:08:44.274Z,4.17
2019-04-23T13:11:51.677Z,3.30
2019-04-23T13:14:57.349Z,4.03
2019-04-23T13:17:53.853Z,3.37
2019-04-23T13:21:15.737Z,3.73
2019-04-23T13:24:46.228Z,3.73
2019-04-23T13:27:53.757Z,3.53
2019-04-23T13:31:03.581Z,3.97
2019-04-23T13:34:19.934Z,3.60
2019-04-23T13:37:05.236Z,4.20
2019-04-23T13:40:10.925Z,4.20
2019-04-23T13:43:19.412Z,3.83
2019-04-23T13:49:26.314Z,3.60
2019-04-23T13:55:27.377Z,3.70
2019-04-23T14:05:12.688Z,3.50
2019-04-23T14:08:22.510Z,3.60
2019-04-23T14:11:23.315Z,3.37
2019-04-23T14:14:38.866Z,3.33
2019-04-23T14:26:47.393Z,3.90
2019-04-23T14:30:05.190Z,3.83
2019-04-23T14:33:03.104Z,2.50
2019-04-23T14:36:19.270Z,2.90
2019-04-23T14:39:10.191Z,3.07
2019-04-23T14:45:44.831Z,4.00
2019-04-23T14:48:23.520Z,3.40
2019-04-23T14:55:14.963Z,3.67
2019-04-23T14:57:53.628Z,3.10
2019-04-23T15:03:50.522Z,3.73
2019-04-23T15:10:12.273Z,3.10
2019-04-23T15:16:30.785Z,3.67
2019-04-23T15:19:40.254Z,2.87
2019-04-23T15:22:35.135Z,3.33
2019-04-23T15:28:16.802Z,4.47
2019-04-23T15:31:48.842Z,3.17
2019-04-23T15:35:03.053Z,3.23
2019-04-23T15:38:18.511Z,4.07
2019-04-23T15:41:03.314Z,3.00
2019-04-23T15:44:10.718Z,3.57
2019-04-23T15:47:10.663Z,3.60
2019-04-23T15:50:22.254Z,3.13
2019-04-23T15:53:15.618Z,3.13
2019-04-23T15:56:37.106Z,3.10
2019-04-23T16:02:06.320Z,3.00
2019-04-23T16:05:12.470Z,3.37
2019-04-23T16:08:51.343Z,3.87
2019-04-23T16:15:02.533Z,3.13
2019-04-23T16:18:23.557Z,3.00
2019-04-23T16:21:28.932Z,3.60
2019-04-23T16:27:21.476Z,3.60
2019-04-23T16:30:36.552Z,3.67
2019-04-23T16:34:14.133Z,3.00
2019-04-23T16:37:15.486Z,3.70
2019-04-23T16:40:23.931Z,3.47
2019-04-23T16:43:19.809Z,3.43
2019-04-23T16:46:28.666Z,3.50
2019-04-23T16:52:34.210Z,4.80
2019-04-23T16:55:50.046Z,3.10
2019-04-23T16:59:02.692Z,3.20
2019-04-23T17:02:06.601Z,3.73
2019-04-23T17:05:29.834Z,3.70
2019-04-23T17:11:25.364Z,4.33
2019-04-23T17:14:27.506Z,4.03
2019-04-23T17:17:30.920Z,3.93
2019-04-23T17:20:40.946Z,3.13
2019-04-23T17:23:45.795Z,3.23
2019-04-23T17:26:46.138Z,3.67
2019-04-23T17:33:15.364Z,3.37
2019-04-23T17:39:54.394Z,3.33
2019-04-23T17:42:56.286Z,3.70
2019-04-23T17:46:00.579Z,3.33
2019-04-23T17:49:10.739Z,3.17
2019-04-23T17:52:16.761Z,3.93
2019-04-23T17:55:18.283Z,3.70
2019-04-23T17:58:26.584Z,3.90
2019-04-23T18:04:33.466Z,4.87
2019-04-23T18:10:48.257Z,4.80
2019-04-23T18:13:57.158Z,3.60
2019-04-23T18:17:09.380Z,3.53
2019-04-23T18:20:29.638Z,4.03
2019-04-23T18:23:36.249Z,3.30
2019-04-23T18:27:15.394Z,3.53
2019-04-23T18:30:33.081Z,3.83
2019-04-23T18:37:12.126Z,5.60
2019-04-23T18:40:08.108Z,3.70
2019-04-23T18:46:30.778Z,3.43
2019-04-23T18:49:35.148Z,5.00
2019-04-23T18:52:42.999Z,3.23
2019-04-23T18:56:03.602Z,3.63
2019-04-23T18:58:57.373Z,4.30
2019-04-23T19:02:02.478Z,4.13
2019-04-23T19:11:51.448Z,3.97
2019-04-23T19:15:04.029Z,4.03
2019-04-23T19:17:51.645Z,3.97
2019-04-23T19:21:00.680Z,4.17
2019-04-23T19:23:59.217Z,3.90
2019-04-23T19:30:41.705Z,4.13
2019-04-23T19:36:54.629Z,3.90
2019-04-23T19:42:58.837Z,4.50
2019-04-23T19:46:03.001Z,4.20
2019-04-23T19:49:18.516Z,4.03
2019-04-23T19:52:03.497Z,3.00
2019-04-23T19:55:08.194Z,3.93
2019-04-23T19:58:24.309Z,4.03
2019-04-23T20:01:23.732Z,4.53
2019-04-23T20:07:43.226Z,4.50
2019-04-23T20:10:39.257Z,4.30
2019-04-23T20:13:50.673Z,4.50
2019-04-23T20:22:56.814Z,4.57
2019-04-23T20:36:07.184Z,4.40
2019-04-23T20:39:16.367Z,5.07
2019-04-23T20:42:13.455Z,4.03
2019-04-23T20:45:14.241Z,4.87
2019-04-23T20:48:25.922Z,4.77
2019-04-23T20:51:34.074Z,4.53
2019-04-23T20:58:06.840Z,4.30
2019-04-23T21:01:18.382Z,4.40
2019-04-23T21:04:13.799Z,5.80
2019-04-23T21:07:30.545Z,4.87
2019-04-23T21:16:36.256Z,5.23
2019-04-23T21:19:50.540Z,4.83
2019-04-23T21:22:44.851Z,4.93
2019-04-23T21:25:47.693Z,5.20
2019-04-23T21:28:59.154Z,4.60
2019-04-23T21:32:13.223Z,6.53
2019-04-23T21:35:45.701Z,6.33
2019-04-23T21:38:37.446Z,5.23
2019-04-23T21:41:45.131Z,5.67
2019-04-23T21:44:35.484Z,6.30
2019-04-23T21:47:51.720Z,7.13
2019-04-23T21:51:15.810Z,6.63
2019-04-23T21:53:55.394Z,6.03
2019-04-23T21:56:53.896Z,6.60
2019-04-23T21:59:59.254Z,6.27
2019-04-23T22:03:15.371Z,5.47
2019-04-23T22:06:22.287Z,5.90
2019-04-23T22:09:24.438Z,6.40
2019-04-23T22:12:34.534Z,7.20
2019-04-23T22:15:45.031Z,6.50
2019-04-23T22:18:56.122Z,6.77
2019-04-23T22:24:48.788Z,6.53
2019-04-23T22:27:54.086Z,6.60
2019-04-23T22:31:03.767Z,6.37
2019-04-23T22:37:23.573Z,5.60
2019-04-23T22:40:10.377Z,5.70
2019-04-23T22:49:41.789Z,5.80
2019-04-23T22:52:41.265Z,5.23
2019-04-23T22:55:51.388Z,6.00
2019-04-23T22:59:01.765Z,6.23
2019-04-23T23:02:11.015Z,7.13
2019-04-23T23:05:12.287Z,5.90
2019-04-23T23:11:13.983Z,5.23
2019-04-23T23:14:24.325Z,6.80
2019-04-23T23:17:32.607Z,5.80
2019-04-23T23:20:37.846Z,5.80
2019-04-23T23:23:57.467Z,5.47
2019-04-23T23:26:49.995Z,8.23
2019-04-23T23:30:01.098Z,4.90
2019-04-23T23:32:57.080Z,5.57
2019-04-23T23:36:03.608Z,4.57
2019-04-23T23:39:05.546Z,5.70
2019-04-23T23:42:09.697Z,4.60
2019-04-23T23:45:21.524Z,5.03
2019-04-23T23:48:20.049Z,4.73
2019-04-23T23:51:27.348Z,3.73
2019-04-23T23:54:43.768Z,4.97
2019-04-23T23:57:30.818Z,5.40
